Time;durP1;ratioP1;P1;durP2;ratioP2;P2;SDS_P1;SDS_P2;PMS_P1;PMS_P2;Temp;Humidity;BMP_temperature;BMP_pressure;BME280_temperature;BME280_humidity;BME280_pressure;Samples;Min_cycle;Max_cycle;Signal;HPM_P1;HPM_P2
2023/10/28 00:02:26;;;;;;;;;;;15.40;94.70;;;;;;4153093;28;19936;-48
2023/10/28 00:05:08;;;;;;;;;;;15.40;94.70;;;;;;4154330;28;19932;-52
2023/10/28 00:07:49;;;;;;;;;;;15.40;94.70;;;;;;4153410;28;19935;-48
2023/10/28 00:10:31;;;;;;;;;;;15.50;94.80;;;;;;4139398;28;19979;-54
2023/10/28 00:13:14;;;;;;;;;;;15.40;94.80;;;;;;4126844;28;19937;-49
2023/10/28 00:15:55;;;;;;;;;;;15.40;94.70;;;;;;4153031;28;19932;-53
2023/10/28 00:18:36;;;;;;;;;;;15.40;94.70;;;;;;4139299;28;19936;-52
2023/10/28 00:21:21;;;;;;;;;;;15.40;94.70;;;;;;4151860;28;19946;-50
2023/10/28 00:24:02;;;;;;;;;;;15.40;94.70;;;;;;4138471;28;19932;-50
2023/10/28 00:26:43;;;;;;;;;;;15.50;94.80;;;;;;4138399;28;19932;-53
2023/10/28 00:29:24;;;;;;;;;;;15.40;95.10;;;;;;4138315;28;19970;-51
2023/10/28 00:32:06;;;;;;;;;;;15.40;94.70;;;;;;4148479;28;19935;-50
2023/10/28 00:34:46;;;;;;;;;;;15.40;94.70;;;;;;4154210;28;19932;-52
2023/10/28 00:37:28;;;;;;;;;;;15.40;94.70;;;;;;4153662;28;19983;-52
2023/10/28 00:40:09;;;;;;;;;;;15.40;94.70;;;;;;4126980;28;19933;-54
2023/10/28 00:42:49;;;;;;;;;;;15.40;94.80;;;;;;4130002;28;19939;-54
2023/10/28 00:45:31;;;;;;;;;;;15.40;94.80;;;;;;4154009;28;20011;-48
2023/10/28 00:48:11;;;;;;;;;;;15.30;94.80;;;;;;4139515;28;19932;-53
2023/10/28 00:50:54;;;;;;;;;;;15.30;94.80;;;;;;4137953;28;19936;-53
2023/10/28 00:53:37;;;;;;;;;;;15.40;94.80;;;;;;4151137;28;20006;-52
2023/10/28 00:56:19;;;;;;;;;;;15.40;94.80;;;;;;4150701;28;19936;-50
2023/10/28 00:58:59;;;;;;;;;;;15.40;94.80;;;;;;4152725;28;19978;-50
2023/10/28 01:01:40;;;;;;;;;;;15.40;95.20;;;;;;4161236;28;20488;-47
2023/10/28 01:04:23;;;;;;;;;;;15.40;94.70;;;;;;4152404;28;20469;-48
2023/10/28 01:07:04;;;;;;;;;;;15.50;94.70;;;;;;4135005;28;19976;-49
2023/10/28 01:09:47;;;;;;;;;;;15.50;95.00;;;;;;4153646;28;19936;-48
2023/10/28 01:12:28;;;;;;;;;;;15.60;94.60;;;;;;4138013;28;19932;-50
2023/10/28 01:15:09;;;;;;;;;;;15.60;94.40;;;;;;4153776;28;20056;-51
2023/10/28 01:17:50;;;;;;;;;;;15.60;94.30;;;;;;4154181;28;20030;-53
2023/10/28 01:20:31;;;;;;;;;;;15.70;94.30;;;;;;4108996;28;19932;-51
2023/10/28 01:23:13;;;;;;;;;;;15.70;94.20;;;;;;4121439;28;19936;-53
2023/10/28 01:25:53;;;;;;;;;;;15.70;94.20;;;;;;4128668;28;19937;-52
2023/10/28 01:28:35;;;;;;;;;;;15.70;94.10;;;;;;4151787;28;19932;-51
2023/10/28 01:31:18;;;;;;;;;;;15.70;94.10;;;;;;4138278;28;19972;-49
2023/10/28 01:33:59;;;;;;;;;;;15.70;94.40;;;;;;4136825;28;19933;-49
2023/10/28 01:36:42;;;;;;;;;;;15.70;94.00;;;;;;4138930;28;19992;-52
2023/10/28 01:39:24;;;;;;;;;;;15.80;94.00;;;;;;4141382;28;19932;-48
2023/10/28 01:42:05;;;;;;;;;;;15.80;94.00;;;;;;4153817;28;19936;-53
2023/10/28 01:44:46;;;;;;;;;;;15.80;94.00;;;;;;4140540;28;20737;-52
2023/10/28 01:47:28;;;;;;;;;;;15.80;94.00;;;;;;4139927;28;20032;-49
2023/10/28 01:50:11;;;;;;;;;;;15.80;94.00;;;;;;4156473;28;20075;-51
2023/10/28 01:52:52;;;;;;;;;;;15.70;93.90;;;;;;4156441;28;20072;-53
2023/10/28 01:55:34;;;;;;;;;;;15.70;94.00;;;;;;4166820;28;19994;-50
2023/10/28 01:58:15;;;;;;;;;;;15.80;94.10;;;;;;4166577;28;19932;-51
2023/10/28 02:00:56;;;;;;;;;;;15.70;94.10;;;;;;4154729;28;20285;-48
2023/10/28 02:03:37;;;;;;;;;;;15.70;94.60;;;;;;4166361;28;20026;-50
2023/10/28 02:06:18;;;;;;;;;;;15.80;94.20;;;;;;4154956;28;19963;-49
2023/10/28 02:08:59;;;;;;;;;;;15.70;94.20;;;;;;4124806;28;19933;-49
2023/10/28 02:11:42;;;;;;;;;;;15.80;94.30;;;;;;4122613;28;19933;-49
2023/10/28 02:14:24;;;;;;;;;;;15.80;94.60;;;;;;4123771;28;19933;-48
2023/10/28 02:17:05;;;;;;;;;;;15.80;94.30;;;;;;4148567;28;19951;-50
2023/10/28 02:19:47;;;;;;;;;;;15.80;94.30;;;;;;4156028;28;19933;-52
2023/10/28 02:22:28;;;;;;;;;;;15.70;94.20;;;;;;4165801;28;19932;-51
2023/10/28 02:25:09;;;;;;;;;;;15.70;94.30;;;;;;4155892;28;19933;-52
2023/10/28 02:27:51;;;;;;;;;;;15.70;94.40;;;;;;4140499;28;19936;-51
2023/10/28 02:30:33;;;;;;;;;;;15.70;94.50;;;;;;4153026;28;19932;-50
2023/10/28 02:33:13;;;;;;;;;;;15.80;94.50;;;;;;4155265;28;19978;-50
2023/10/28 02:35:54;;;;;;;;;;;15.80;94.50;;;;;;4155190;28;19947;-48
2023/10/28 02:38:35;;;;;;;;;;;15.80;94.40;;;;;;4138900;28;19935;-48
2023/10/28 02:41:16;;;;;;;;;;;15.90;94.30;;;;;;4137654;28;19979;-53
2023/10/28 02:43:58;;;;;;;;;;;15.90;94.30;;;;;;4139336;28;19933;-54
2023/10/28 02:46:39;;;;;;;;;;;15.90;94.20;;;;;;4140882;28;19936;-51
2023/10/28 02:49:21;;;;;;;;;;;15.90;94.10;;;;;;4140265;28;20389;-52
2023/10/28 02:52:01;;;;;;;;;;;15.90;94.10;;;;;;4139203;28;20401;-53
2023/10/28 02:54:42;;;;;;;;;;;15.90;94.30;;;;;;4148895;28;19933;-51
2023/10/28 02:57:23;;;;;;;;;;;15.90;94.30;;;;;;4126219;28;19945;-51
2023/10/28 03:00:08;;;;;;;;;;;15.90;94.10;;;;;;4138362;28;19932;-51
2023/10/28 03:02:52;;;;;;;;;;;16.00;94.10;;;;;;4155079;28;19933;-54
2023/10/28 03:05:33;;;;;;;;;;;16.00;94.00;;;;;;4140075;28;19932;-49
2023/10/28 03:08:14;;;;;;;;;;;16.10;94.00;;;;;;4162413;28;19935;-49
2023/10/28 03:10:55;;;;;;;;;;;16.10;93.90;;;;;;4155317;28;19936;-43
2023/10/28 03:13:36;;;;;;;;;;;16.10;93.90;;;;;;4154797;28;19932;-48
2023/10/28 03:16:18;;;;;;;;;;;16.10;93.90;;;;;;4148281;28;20439;-46
2023/10/28 03:18:59;;;;;;;;;;;16.10;94.40;;;;;;4155008;28;19971;-44
2023/10/28 03:21:40;;;;;;;;;;;16.00;93.90;;;;;;4138814;28;19936;-44
2023/10/28 03:24:20;;;;;;;;;;;16.00;94.00;;;;;;4154023;28;19932;-49
2023/10/28 03:27:01;;;;;;;;;;;16.10;94.10;;;;;;4153444;28;20427;-45
2023/10/28 03:29:42;;;;;;;;;;;16.10;94.10;;;;;;4154268;28;19932;-46
2023/10/28 03:32:24;;;;;;;;;;;16.10;94.00;;;;;;4153706;28;20396;-46
2023/10/28 03:35:05;;;;;;;;;;;16.10;94.00;;;;;;4154730;28;19957;-43
2023/10/28 03:37:47;;;;;;;;;;;16.20;94.00;;;;;;4138537;28;20425;-44
2023/10/28 03:40:28;;;;;;;;;;;16.20;93.80;;;;;;4153532;28;20293;-45
2023/10/28 03:43:09;;;;;;;;;;;16.20;94.20;;;;;;4154638;28;19999;-45
2023/10/28 03:45:50;;;;;;;;;;;16.10;93.80;;;;;;4154701;28;19936;-43
2023/10/28 03:48:33;;;;;;;;;;;16.20;93.90;;;;;;4154608;28;20685;-43
2023/10/28 03:51:13;;;;;;;;;;;16.20;93.90;;;;;;4154699;28;19948;-48
2023/10/28 03:53:54;;;;;;;;;;;16.20;93.80;;;;;;4151273;28;20365;-45
2023/10/28 03:56:35;;;;;;;;;;;16.20;93.70;;;;;;4137764;28;19997;-46
2023/10/28 03:59:16;;;;;;;;;;;16.20;93.60;;;;;;4130196;28;19937;-45
2023/10/28 04:01:58;;;;;;;;;;;16.20;93.60;;;;;;4136475;28;19936;-44
2023/10/28 04:04:40;;;;;;;;;;;16.20;93.50;;;;;;4143303;28;20325;-44
2023/10/28 04:07:22;;;;;;;;;;;16.20;94.00;;;;;;4149163;28;20304;-44
2023/10/28 04:10:07;;;;;;;;;;;16.20;93.60;;;;;;4153487;28;20678;-43
2023/10/28 04:12:48;;;;;;;;;;;16.10;93.70;;;;;;4154417;28;19948;-46
2023/10/28 04:15:28;;;;;;;;;;;16.20;94.10;;;;;;4154284;28;19936;-46
2023/10/28 04:18:09;;;;;;;;;;;16.20;93.70;;;;;;4154712;28;19932;-44
2023/10/28 04:20:51;;;;;;;;;;;16.20;93.60;;;;;;4154109;28;19936;-49
2023/10/28 04:23:32;;;;;;;;;;;16.20;93.60;;;;;;4153774;28;20290;-44
2023/10/28 04:26:12;;;;;;;;;;;16.20;93.60;;;;;;4153827;28;19969;-46
2023/10/28 04:28:53;;;;;;;;;;;16.20;93.50;;;;;;4145585;28;19933;-46
2023/10/28 04:31:34;;;;;;;;;;;16.20;93.60;;;;;;4138071;28;19980;-43
2023/10/28 04:34:14;;;;;;;;;;;16.20;93.60;;;;;;4136619;28;20055;-46
2023/10/28 04:36:57;;;;;;;;;;;16.20;93.60;;;;;;4137565;28;19932;-45
2023/10/28 04:39:40;;;;;;;;;;;16.20;93.50;;;;;;4122408;28;20755;-50
2023/10/28 04:42:21;;;;;;;;;;;16.30;93.50;;;;;;4149452;28;19980;-52
2023/10/28 04:45:04;;;;;;;;;;;16.30;93.40;;;;;;4153697;28;20385;-53
2023/10/28 04:47:45;;;;;;;;;;;16.30;93.70;;;;;;4147365;28;20019;-49
2023/10/28 04:50:26;;;;;;;;;;;16.30;93.40;;;;;;4138923;28;19933;-53
2023/10/28 04:53:08;;;;;;;;;;;16.30;93.30;;;;;;4152574;28;20400;-51
2023/10/28 04:55:49;;;;;;;;;;;16.30;93.30;;;;;;4152646;28;19933;-52
2023/10/28 04:58:30;;;;;;;;;;;16.30;93.40;;;;;;4153269;28;19963;-49
2023/10/28 05:01:10;;;;;;;;;;;16.30;93.40;;;;;;4148557;28;19940;-49
2023/10/28 05:03:51;;;;;;;;;;;16.30;93.30;;;;;;4154002;28;19960;-48
2023/10/28 05:06:32;;;;;;;;;;;16.30;93.20;;;;;;4154061;28;19955;-49
2023/10/28 05:09:15;;;;;;;;;;;16.30;93.20;;;;;;4154050;28;20393;-47
2023/10/28 05:11:56;;;;;;;;;;;16.30;93.20;;;;;;4137821;28;19953;-49
2023/10/28 05:14:37;;;;;;;;;;;16.30;93.30;;;;;;4144640;28;20682;-46
2023/10/28 05:17:17;;;;;;;;;;;16.30;93.30;;;;;;4135894;28;20581;-49
2023/10/28 05:19:58;;;;;;;;;;;16.40;93.60;;;;;;4157129;28;19936;-49
2023/10/28 05:22:41;;;;;;;;;;;16.40;93.20;;;;;;4167784;28;19932;-47
2023/10/28 05:25:23;;;;;;;;;;;16.40;93.10;;;;;;4156627;28;19991;-50
2023/10/28 05:28:04;;;;;;;;;;;16.40;93.10;;;;;;4157161;28;19936;-54
2023/10/28 05:30:45;;;;;;;;;;;16.40;93.20;;;;;;4156163;28;19940;-54
2023/10/28 05:33:26;;;;;;;;;;;16.40;93.30;;;;;;4140586;28;20634;-49
2023/10/28 05:36:07;;;;;;;;;;;16.40;93.70;;;;;;4140346;28;19979;-51
2023/10/28 05:38:48;;;;;;;;;;;16.40;93.20;;;;;;4140653;28;20336;-53
2023/10/28 05:41:30;;;;;;;;;;;16.40;93.30;;;;;;4141415;28;19932;-53
2023/10/28 05:44:11;;;;;;;;;;;16.40;93.30;;;;;;4140832;28;19936;-52
2023/10/28 05:46:52;;;;;;;;;;;16.40;93.40;;;;;;4140043;28;19933;-50
2023/10/28 05:49:33;;;;;;;;;;;16.40;93.30;;;;;;4155709;28;19963;-53
2023/10/28 05:52:18;;;;;;;;;;;16.40;93.30;;;;;;4139962;28;20298;-54
2023/10/28 05:54:59;;;;;;;;;;;16.40;93.40;;;;;;4140379;28;19936;-52
2023/10/28 05:57:43;;;;;;;;;;;16.40;93.30;;;;;;4140266;28;19932;-49
2023/10/28 06:00:24;;;;;;;;;;;16.40;93.70;;;;;;4145616;28;20308;-53
2023/10/28 06:03:04;;;;;;;;;;;16.30;93.30;;;;;;4155890;28;19932;-45
2023/10/28 06:05:45;;;;;;;;;;;16.30;93.30;;;;;;4155476;28;19940;-44
2023/10/28 06:08:26;;;;;;;;;;;16.30;93.30;;;;;;4156217;28;20682;-45
2023/10/28 06:11:09;;;;;;;;;;;16.20;93.30;;;;;;4156058;28;20787;-44
2023/10/28 06:13:51;;;;;;;;;;;16.20;93.30;;;;;;4156028;28;19937;-44
2023/10/28 06:16:34;;;;;;;;;;;16.20;93.40;;;;;;4155604;28;19931;-44
2023/10/28 06:19:14;;;;;;;;;;;16.10;93.80;;;;;;4166105;28;20062;-44
2023/10/28 06:21:55;;;;;;;;;;;16.10;93.50;;;;;;4139593;28;19932;-44
2023/10/28 06:24:39;;;;;;;;;;;16.10;93.60;;;;;;4147398;28;19936;-44
2023/10/28 06:27:21;;;;;;;;;;;16.10;93.60;;;;;;4156326;28;19982;-44
2023/10/28 06:30:06;;;;;;;;;;;16.20;93.60;;;;;;4154547;28;20402;-44
2023/10/28 06:32:47;;;;;;;;;;;16.20;93.50;;;;;;4143016;28;19952;-46
2023/10/28 06:35:27;;;;;;;;;;;16.20;93.50;;;;;;4154988;28;19931;-49
2023/10/28 06:38:08;;;;;;;;;;;16.20;93.90;;;;;;4155595;28;20018;-47
2023/10/28 06:40:49;;;;;;;;;;;16.30;93.50;;;;;;4155378;28;19963;-45
2023/10/28 06:43:29;;;;;;;;;;;16.30;93.40;;;;;;4155392;28;19953;-43
2023/10/28 06:46:12;;;;;;;;;;;16.40;93.50;;;;;;4155211;28;19935;-48
2023/10/28 06:48:53;;;;;;;;;;;16.40;93.40;;;;;;4154195;28;19947;-46
2023/10/28 06:51:33;;;;;;;;;;;16.40;93.30;;;;;;4139515;28;19936;-45
2023/10/28 06:54:14;;;;;;;;;;;16.40;93.30;;;;;;4138967;28;19932;-52
2023/10/28 06:56:55;;;;;;;;;;;16.50;93.20;;;;;;4149021;28;19932;-53
2023/10/28 06:59:36;;;;;;;;;;;16.50;93.20;;;;;;4154375;28;19952;-51
2023/10/28 07:02:18;;;;;;;;;;;16.50;93.10;;;;;;4140667;28;19932;-46
2023/10/28 07:04:59;;;;;;;;;;;16.50;93.30;;;;;;4137691;28;19935;-47
2023/10/28 07:07:40;;;;;;;;;;;16.50;92.80;;;;;;4149180;28;20400;-45
2023/10/28 07:10:21;;;;;;;;;;;16.50;92.90;;;;;;4138594;28;19948;-45
2023/10/28 07:13:02;;;;;;;;;;;16.60;92.80;;;;;;4154981;28;20492;-48
2023/10/28 07:15:44;;;;;;;;;;;16.50;92.80;;;;;;4154055;28;19932;-45
2023/10/28 07:18:26;;;;;;;;;;;16.50;92.80;;;;;;4150969;28;19968;-44
2023/10/28 07:21:07;;;;;;;;;;;16.50;92.80;;;;;;4153345;28;19936;-44
2023/10/28 07:23:49;;;;;;;;;;;16.40;92.80;;;;;;4164740;28;19935;-44
2023/10/28 07:26:30;;;;;;;;;;;16.40;92.90;;;;;;4154352;28;19996;-43
2023/10/28 07:29:11;;;;;;;;;;;16.40;93.30;;;;;;4136504;28;19936;-44
2023/10/28 07:31:52;;;;;;;;;;;16.30;92.90;;;;;;4138665;28;19971;-45
2023/10/28 07:34:34;;;;;;;;;;;16.30;93.10;;;;;;4138342;28;19961;-45
2023/10/28 07:37:15;;;;;;;;;;;16.20;93.10;;;;;;4138252;28;20480;-47
2023/10/28 07:39:56;;;;;;;;;;;16.20;93.10;;;;;;4138419;28;19931;-51
2023/10/28 07:42:37;;;;;;;;;;;16.20;93.10;;;;;;4132128;28;20335;-52
2023/10/28 07:45:18;;;;;;;;;;;16.10;93.10;;;;;;4155085;28;20048;-51
2023/10/28 07:47:59;;;;;;;;;;;16.10;93.10;;;;;;4139655;28;20366;-50
2023/10/28 07:50:41;;;;;;;;;;;16.10;92.90;;;;;;4153232;28;19936;-51
2023/10/28 07:53:22;;;;;;;;;;;16.00;92.80;;;;;;4153982;28;19971;-50
2023/10/28 07:56:03;;;;;;;;;;;16.00;92.70;;;;;;4154494;28;20059;-52
2023/10/28 07:58:44;;;;;;;;;;;16.00;92.70;;;;;;4154028;28;20360;-52
2023/10/28 08:01:25;;;;;;;;;;;15.90;92.70;;;;;;4154268;28;20377;-53
2023/10/28 08:04:06;;;;;;;;;;;15.90;92.70;;;;;;4153755;28;19932;-51
2023/10/28 08:06:51;;;;;;;;;;;15.90;92.80;;;;;;4153615;28;20022;-50
2023/10/28 08:09:31;;;;;;;;;;;15.90;92.70;;;;;;4155224;28;19932;-51
2023/10/28 08:12:12;;;;;;;;;;;15.80;92.70;;;;;;4154190;28;20490;-51
2023/10/28 08:14:53;;;;;;;;;;;15.80;92.70;;;;;;4154416;28;19940;-53
2023/10/28 08:17:34;;;;;;;;;;;15.80;93.10;;;;;;4151254;28;20040;-47
2023/10/28 08:20:15;;;;;;;;;;;15.80;92.80;;;;;;4154414;28;19936;-43
2023/10/28 08:22:57;;;;;;;;;;;15.80;92.80;;;;;;4154356;28;19933;-43
2023/10/28 08:25:38;;;;;;;;;;;15.80;92.90;;;;;;4154019;28;20495;-44
2023/10/28 08:28:19;;;;;;;;;;;15.80;93.00;;;;;;4138565;28;20461;-44
2023/10/28 08:30:59;;;;;;;;;;;15.70;93.00;;;;;;4148056;28;19932;-45
2023/10/28 08:33:41;;;;;;;;;;;15.70;93.00;;;;;;4152238;28;20014;-44
2023/10/28 08:36:24;;;;;;;;;;;15.70;93.00;;;;;;4137370;28;19983;-47
2023/10/28 08:39:07;;;;;;;;;;;15.70;93.00;;;;;;4153272;28;20392;-49
2023/10/28 08:41:50;;;;;;;;;;;15.70;93.00;;;;;;4153962;28;19931;-44
2023/10/28 08:44:32;;;;;;;;;;;15.70;93.00;;;;;;4138119;28;19933;-45
2023/10/28 08:47:13;;;;;;;;;;;15.70;93.20;;;;;;4137823;28;19936;-41
2023/10/28 08:49:55;;;;;;;;;;;15.70;93.50;;;;;;4137877;28;19952;-43
2023/10/28 08:52:37;;;;;;;;;;;15.70;94.00;;;;;;4139957;28;19948;-44
2023/10/28 08:55:20;;;;;;;;;;;15.80;94.30;;;;;;4146440;28;19947;-45
2023/10/28 08:58:01;;;;;;;;;;;15.90;94.90;;;;;;4157447;28;19936;-47
2023/10/28 09:00:42;;;;;;;;;;;15.90;94.50;;;;;;4156618;28;19936;-46
2023/10/28 09:03:23;;;;;;;;;;;15.90;94.50;;;;;;4147237;28;20381;-50
2023/10/28 09:06:07;;;;;;;;;;;15.90;94.80;;;;;;4155129;28;19971;-52
2023/10/28 09:08:49;;;;;;;;;;;16.00;95.10;;;;;;4156823;28;19932;-56
2023/10/28 09:11:32;;;;;;;;;;;16.00;95.70;;;;;;4157391;28;19935;-56
2023/10/28 09:14:13;;;;;;;;;;;16.10;95.50;;;;;;4156872;28;19932;-56
2023/10/28 09:16:55;;;;;;;;;;;16.20;95.40;;;;;;4128276;28;19957;-50
2023/10/28 09:19:36;;;;;;;;;;;16.40;95.50;;;;;;4144225;28;19932;-50
2023/10/28 09:22:17;;;;;;;;;;;16.60;94.60;;;;;;4157158;28;19936;-52
2023/10/28 09:24:58;;;;;;;;;;;16.70;94.10;;;;;;4155239;28;19932;-53
2023/10/28 09:27:41;;;;;;;;;;;16.90;93.80;;;;;;4156525;28;19932;-56
2023/10/28 09:30:21;;;;;;;;;;;17.10;93.50;;;;;;4156299;28;19935;-57
2023/10/28 09:33:03;;;;;;;;;;;17.30;92.90;;;;;;4156559;28;20010;-56
2023/10/28 09:35:47;;;;;;;;;;;17.40;93.10;;;;;;4154155;28;20393;-56
2023/10/28 09:38:29;;;;;;;;;;;17.60;92.30;;;;;;4140993;28;19936;-51
2023/10/28 09:41:10;;;;;;;;;;;17.70;92.20;;;;;;4139924;28;19936;-51
2023/10/28 09:43:53;;;;;;;;;;;17.80;91.60;;;;;;4138370;28;19932;-49
2023/10/28 09:46:35;;;;;;;;;;;17.80;91.40;;;;;;4135474;28;19933;-58
2023/10/28 09:49:18;;;;;;;;;;;17.70;91.40;;;;;;4138681;28;19936;-47
2023/10/28 09:52:00;;;;;;;;;;;17.80;91.70;;;;;;4140923;28;20394;-48
2023/10/28 09:54:42;;;;;;;;;;;17.90;91.60;;;;;;4150962;28;20289;-51
2023/10/28 09:57:23;;;;;;;;;;;18.00;91.40;;;;;;4136916;28;20868;-58
2023/10/28 10:00:09;;;;;;;;;;;18.10;91.30;;;;;;4138424;28;20063;-59
2023/10/28 10:02:56;;;;;;;;;;;18.10;91.00;;;;;;4152455;28;19936;-46
2023/10/28 10:05:40;;;;;;;;;;;18.10;90.90;;;;;;4153153;28;20221;-46
2023/10/28 10:08:21;;;;;;;;;;;18.20;91.10;;;;;;4143718;28;19951;-47
2023/10/28 10:11:04;;;;;;;;;;;18.20;91.20;;;;;;4138172;28;20417;-45
2023/10/28 10:13:46;;;;;;;;;;;18.20;91.80;;;;;;4152165;28;20074;-54
2023/10/28 10:16:33;;;;;;;;;;;18.20;91.60;;;;;;4144985;28;19970;-55
2023/10/28 10:19:18;;;;;;;;;;;18.10;91.50;;;;;;4136858;28;19972;-52
2023/10/28 10:21:59;;;;;;;;;;;18.20;91.80;;;;;;4139313;28;19936;-49
2023/10/28 10:24:48;;;;;;;;;;;18.20;91.50;;;;;;4138312;28;20019;-55
2023/10/28 10:27:33;;;;;;;;;;;18.30;91.40;;;;;;4151646;28;19936;-52
2023/10/28 10:30:14;;;;;;;;;;;18.30;91.50;;;;;;4149363;28;19933;-48
2023/10/28 10:32:56;;;;;;;;;;;18.20;91.20;;;;;;4140166;28;20059;-57
2023/10/28 10:35:38;;;;;;;;;;;18.10;91.50;;;;;;4152590;28;19940;-56
2023/10/28 10:38:27;;;;;;;;;;;18.10;91.10;;;;;;4136726;28;19940;-56
2023/10/28 10:41:08;;;;;;;;;;;17.90;91.10;;;;;;4127813;28;19972;-56
2023/10/28 10:43:49;;;;;;;;;;;17.80;91.20;;;;;;4151575;28;19936;-57
2023/10/28 10:46:30;;;;;;;;;;;17.80;91.40;;;;;;4144434;28;20451;-56
2023/10/28 10:49:12;;;;;;;;;;;17.70;91.50;;;;;;4152026;28;20129;-52
2023/10/28 10:51:53;;;;;;;;;;;17.60;91.60;;;;;;4154178;28;19963;-50
2023/10/28 10:54:35;;;;;;;;;;;17.50;91.50;;;;;;4118187;28;20031;-49
2023/10/28 10:57:16;;;;;;;;;;;17.40;91.60;;;;;;4144923;28;19982;-50
2023/10/28 10:59:58;;;;;;;;;;;17.40;91.60;;;;;;4138511;28;20291;-49
2023/10/28 11:02:39;;;;;;;;;;;17.30;91.70;;;;;;4136396;28;20501;-49
2023/10/28 11:05:21;;;;;;;;;;;17.20;91.80;;;;;;4150188;28;20476;-48
2023/10/28 11:08:04;;;;;;;;;;;17.10;91.80;;;;;;4147895;28;20083;-49
2023/10/28 11:10:46;;;;;;;;;;;17.10;91.80;;;;;;4135641;28;20185;-51
2023/10/28 11:13:28;;;;;;;;;;;17.10;91.90;;;;;;4135683;28;19936;-46
2023/10/28 11:16:19;;;;;;;;;;;17.00;92.00;;;;;;4124868;28;19937;-48
2023/10/28 11:19:03;;;;;;;;;;;16.90;92.10;;;;;;4124084;28;23104;-51
2023/10/28 11:21:45;;;;;;;;;;;16.90;92.30;;;;;;4147115;28;19951;-52
2023/10/28 11:24:27;;;;;;;;;;;16.90;92.40;;;;;;4137363;28;20297;-46
2023/10/28 11:27:08;;;;;;;;;;;16.80;92.50;;;;;;4142706;28;19936;-54
2023/10/28 11:29:50;;;;;;;;;;;16.80;92.60;;;;;;4141253;28;19940;-49
2023/10/28 11:32:37;;;;;;;;;;;16.80;92.80;;;;;;4138197;28;20267;-41
2023/10/28 11:35:18;;;;;;;;;;;16.80;92.80;;;;;;4136013;28;19978;-37
2023/10/28 11:38:02;;;;;;;;;;;16.80;92.70;;;;;;4149325;28;20393;-37
2023/10/28 11:40:43;;;;;;;;;;;16.70;92.80;;;;;;4150959;28;20406;-46
2023/10/28 11:43:24;;;;;;;;;;;16.70;92.90;;;;;;4132724;28;19936;-45
2023/10/28 11:46:05;;;;;;;;;;;16.70;93.10;;;;;;4144121;28;19932;-44
2023/10/28 11:48:46;;;;;;;;;;;16.70;93.10;;;;;;4146547;28;19986;-46
2023/10/28 11:51:29;;;;;;;;;;;16.70;93.20;;;;;;4137420;28;20464;-44
2023/10/28 11:54:11;;;;;;;;;;;16.60;93.20;;;;;;4150476;28;20405;-46
2023/10/28 11:56:52;;;;;;;;;;;16.60;93.30;;;;;;4143716;28;20512;-60
2023/10/28 11:59:33;;;;;;;;;;;16.60;93.40;;;;;;4143074;28;20286;-45
2023/10/28 12:02:14;;;;;;;;;;;16.70;93.50;;;;;;4150467;28;19936;-48
2023/10/28 12:04:55;;;;;;;;;;;16.70;93.50;;;;;;4130745;28;20043;-45
2023/10/28 12:07:36;;;;;;;;;;;16.80;93.50;;;;;;4148176;28;19936;-46
2023/10/28 12:10:18;;;;;;;;;;;16.80;93.50;;;;;;4150792;28;19936;-51
2023/10/28 12:12:59;;;;;;;;;;;16.80;93.50;;;;;;4142166;28;20046;-50
2023/10/28 12:15:40;;;;;;;;;;;16.70;93.40;;;;;;4139529;28;19940;-45
2023/10/28 12:18:21;;;;;;;;;;;16.70;93.40;;;;;;4135801;28;19936;-47
2023/10/28 12:21:02;;;;;;;;;;;16.70;93.50;;;;;;4150633;28;20048;-48
2023/10/28 12:23:44;;;;;;;;;;;16.70;93.40;;;;;;4135770;28;19935;-50
2023/10/28 12:26:26;;;;;;;;;;;16.70;93.40;;;;;;4143957;28;19936;-47
2023/10/28 12:29:07;;;;;;;;;;;16.70;93.40;;;;;;4150117;28;19936;-42
2023/10/28 12:31:49;;;;;;;;;;;16.60;93.40;;;;;;4150067;28;20088;-45
2023/10/28 12:34:29;;;;;;;;;;;16.70;93.50;;;;;;4140630;28;19938;-54
2023/10/28 12:37:11;;;;;;;;;;;16.70;93.50;;;;;;4146830;28;19940;-45
2023/10/28 12:39:51;;;;;;;;;;;16.60;93.50;;;;;;4150882;28;19948;-57
2023/10/28 12:42:35;;;;;;;;;;;16.60;93.50;;;;;;4137224;28;19982;-46
2023/10/28 12:45:16;;;;;;;;;;;16.70;93.60;;;;;;4142424;28;20530;-46
2023/10/28 12:47:58;;;;;;;;;;;16.60;93.60;;;;;;4144831;28;20389;-46
2023/10/28 12:50:39;;;;;;;;;;;16.60;93.60;;;;;;4140660;28;19940;-46
2023/10/28 12:53:20;;;;;;;;;;;16.60;93.60;;;;;;4124516;28;20027;-45
2023/10/28 12:56:02;;;;;;;;;;;16.60;93.50;;;;;;4142973;28;20393;-45
2023/10/28 12:58:45;;;;;;;;;;;16.70;93.40;;;;;;4148107;28;19933;-46
2023/10/28 13:01:26;;;;;;;;;;;16.70;93.20;;;;;;4160740;28;20535;-49
2023/10/28 13:04:07;;;;;;;;;;;16.70;93.00;;;;;;4147037;28;19975;-45
2023/10/28 13:06:50;;;;;;;;;;;16.70;92.80;;;;;;4143941;28;19936;-47
2023/10/28 13:09:31;;;;;;;;;;;16.70;92.70;;;;;;4138603;28;19932;-45
2023/10/28 13:12:12;;;;;;;;;;;16.80;92.60;;;;;;4149978;28;20060;-47
2023/10/28 13:14:55;;;;;;;;;;;16.80;92.50;;;;;;4135200;28;19978;-46
2023/10/28 13:17:36;;;;;;;;;;;16.80;92.50;;;;;;4145810;28;20535;-50
2023/10/28 13:20:18;;;;;;;;;;;16.70;92.40;;;;;;4150358;28;19998;-48
2023/10/28 13:23:00;;;;;;;;;;;16.70;92.40;;;;;;4137737;28;19945;-49
2023/10/28 13:25:41;;;;;;;;;;;16.70;92.40;;;;;;4136255;28;19979;-52
2023/10/28 13:28:22;;;;;;;;;;;16.70;92.40;;;;;;4150032;28;19937;-51
2023/10/28 13:31:04;;;;;;;;;;;16.70;92.40;;;;;;4144132;28;19932;-52
2023/10/28 13:33:45;;;;;;;;;;;16.60;92.40;;;;;;4140874;28;19940;-49
2023/10/28 13:36:26;;;;;;;;;;;16.60;92.50;;;;;;4134873;28;20189;-50
2023/10/28 13:39:07;;;;;;;;;;;16.60;92.50;;;;;;4134029;28;19936;-49
2023/10/28 13:41:48;;;;;;;;;;;16.60;93.00;;;;;;4149558;28;20444;-52
2023/10/28 13:44:28;;;;;;;;;;;16.50;92.60;;;;;;4143544;28;19939;-50
2023/10/28 13:47:11;;;;;;;;;;;16.60;92.70;;;;;;4143215;28;19940;-52
2023/10/28 13:49:55;;;;;;;;;;;16.50;92.70;;;;;;4141043;28;19937;-50
2023/10/28 13:52:35;;;;;;;;;;;16.50;92.80;;;;;;4138448;28;20599;-51
2023/10/28 13:55:16;;;;;;;;;;;16.50;93.00;;;;;;4143694;28;19982;-46
2023/10/28 13:57:57;;;;;;;;;;;16.50;93.00;;;;;;4146897;28;20370;-49
2023/10/28 14:00:39;;;;;;;;;;;16.50;93.00;;;;;;4152194;28;19935;-50
2023/10/28 14:03:22;;;;;;;;;;;16.50;92.90;;;;;;4139210;28;19983;-46
2023/10/28 14:06:04;;;;;;;;;;;16.50;93.00;;;;;;4153394;28;19936;-54
2023/10/28 14:08:45;;;;;;;;;;;16.50;93.10;;;;;;4138692;28;19940;-51
2023/10/28 14:11:26;;;;;;;;;;;16.50;93.20;;;;;;4149042;28;19936;-51
2023/10/28 14:14:08;;;;;;;;;;;16.50;93.20;;;;;;4152628;28;19964;-52
2023/10/28 14:16:50;;;;;;;;;;;16.50;93.20;;;;;;4151055;28;19963;-56
2023/10/28 14:19:34;;;;;;;;;;;16.50;93.30;;;;;;4151813;28;19952;-50
2023/10/28 14:22:14;;;;;;;;;;;16.50;93.40;;;;;;4139888;28;20293;-46
2023/10/28 14:24:55;;;;;;;;;;;16.50;93.40;;;;;;4152556;28;19931;-48
2023/10/28 14:27:36;;;;;;;;;;;16.60;93.50;;;;;;4139239;28;19933;-50
2023/10/28 14:30:17;;;;;;;;;;;16.60;93.50;;;;;;4152393;28;19979;-51
2023/10/28 14:32:58;;;;;;;;;;;16.60;93.40;;;;;;4137675;28;20075;-54
2023/10/28 14:35:40;;;;;;;;;;;16.60;93.40;;;;;;4145170;28;20055;-55
2023/10/28 14:38:24;;;;;;;;;;;16.70;93.40;;;;;;4144663;28;19933;-58
2023/10/28 14:41:05;;;;;;;;;;;16.70;93.40;;;;;;4139511;28;19936;-52
2023/10/28 14:43:46;;;;;;;;;;;16.70;93.30;;;;;;4143612;28;19968;-53
2023/10/28 14:46:27;;;;;;;;;;;16.80;93.30;;;;;;4133491;28;19932;-50
2023/10/28 14:49:08;;;;;;;;;;;16.80;93.30;;;;;;4152551;28;20603;-48
2023/10/28 14:51:50;;;;;;;;;;;16.80;93.10;;;;;;4148717;28;19944;-50
2023/10/28 14:54:31;;;;;;;;;;;16.70;92.80;;;;;;4144150;28;19982;-46
2023/10/28 14:57:12;;;;;;;;;;;16.70;92.80;;;;;;4128915;28;19936;-47
2023/10/28 14:59:53;;;;;;;;;;;16.60;92.70;;;;;;4162169;28;19936;-48
2023/10/28 15:02:36;;;;;;;;;;;16.60;92.90;;;;;;4125015;28;19932;-53
2023/10/28 15:05:17;;;;;;;;;;;16.60;93.10;;;;;;4130004;28;20300;-55
2023/10/28 15:08:00;;;;;;;;;;;16.60;93.20;;;;;;4141984;28;19952;-54
2023/10/28 15:10:41;;;;;;;;;;;16.60;93.30;;;;;;4162326;28;19940;-53
2023/10/28 15:13:21;;;;;;;;;;;16.60;93.10;;;;;;4142601;28;19937;-53
2023/10/28 15:16:02;;;;;;;;;;;16.60;93.10;;;;;;4137837;28;20068;-53
2023/10/28 15:18:44;;;;;;;;;;;16.60;93.10;;;;;;4152457;28;19978;-51
2023/10/28 15:21:25;;;;;;;;;;;16.50;93.10;;;;;;4152869;28;19932;-54
2023/10/28 15:24:08;;;;;;;;;;;16.50;93.20;;;;;;4136201;28;19932;-52
2023/10/28 15:26:49;;;;;;;;;;;16.60;93.30;;;;;;4141394;28;20294;-51
2023/10/28 15:29:29;;;;;;;;;;;16.70;93.40;;;;;;4144659;28;19935;-50
2023/10/28 15:32:10;;;;;;;;;;;16.80;93.20;;;;;;4136849;28;19939;-50
2023/10/28 15:34:51;;;;;;;;;;;17.00;93.00;;;;;;4130561;28;19937;-52
2023/10/28 15:37:31;;;;;;;;;;;17.20;92.80;;;;;;4135298;28;19932;-50
2023/10/28 15:40:16;;;;;;;;;;;17.40;92.50;;;;;;4138350;28;19937;-54